Time;durP1;ratioP1;P1;durP2;ratioP2;P2;SDS_P1;SDS_P2;PMS_P1;PMS_P2;Temp;Humidity;BMP_temperature;BMP_pressure;BME280_temperature;BME280_humidity;BME280_pressure;Samples;Min_cycle;Max_cycle;Signal;HPM_P1;HPM_P2
2023/12/31 00:00:11;;;;;;;33.80;10.77;;;;;;;5.65;100.00;100366.00;5053392;28;20040;-78
2023/12/31 00:02:37;;;;;;;31.45;9.75;;;;;;;5.66;100.00;100365.00;5043190;28;20032;-77
2023/12/31 00:05:03;;;;;;;20.42;9.45;;;;;;;5.62;100.00;100353.00;5035109;28;20035;-77
2023/12/31 00:07:29;;;;;;;26.58;9.90;;;;;;;5.59;100.00;100346.19;5035132;28;20036;-78
2023/12/31 00:09:54;;;;;;;30.30;8.90;;;;;;;5.70;100.00;100350.50;5059959;28;20047;-78
2023/12/31 00:12:19;;;;;;;20.57;8.23;;;;;;;5.65;100.00;100339.50;5032132;28;20038;-76
2023/12/31 00:14:45;;;;;;;29.60;9.30;;;;;;;5.55;100.00;100331.56;5030801;28;20135;-77
2023/12/31 00:17:10;;;;;;;24.40;10.17;;;;;;;5.62;100.00;100332.69;5060857;28;20047;-77
2023/12/31 00:19:35;;;;;;;23.20;8.52;;;;;;;5.49;100.00;100325.00;5035765;28;20036;-78
2023/12/31 00:22:01;;;;;;;21.77;8.45;;;;;;;5.74;100.00;100329.88;5034035;28;20084;-79
2023/12/31 00:24:26;;;;;;;26.03;11.07;;;;;;;5.73;100.00;100323.72;5051761;28;20040;-80
2023/12/31 00:26:51;;;;;;;25.15;8.88;;;;;;;5.55;100.00;100310.38;5035056;28;20398;-79
2023/12/31 00:29:17;;;;;;;18.05;7.80;;;;;;;5.40;100.00;100303.84;5035215;28;20036;-79
2023/12/31 00:31:43;;;;;;;26.03;7.80;;;;;;;5.48;100.00;100317.22;5031965;28;20036;-79
2023/12/31 00:34:10;;;;;;;22.97;7.87;;;;;;;5.47;100.00;100311.06;5034354;28;20549;-80
2023/12/31 00:36:36;;;;;;;23.42;8.48;;;;;;;5.59;100.00;100319.69;5034594;28;20366;-80
2023/12/31 00:39:01;;;;;;;25.67;9.27;;;;;;;5.71;100.00;100312.44;5056492;28;20119;-79
2023/12/31 00:41:27;;;;;;;25.53;7.83;;;;;;;5.63;100.00;100299.09;5034206;28;20294;-80
2023/12/31 00:43:52;;;;;;;35.97;9.98;;;;;;;5.61;100.00;100287.78;5034214;28;20085;-80
2023/12/31 00:46:17;;;;;;;22.57;7.73;;;;;;;5.64;100.00;100306.03;5034629;28;20036;-80
2023/12/31 00:48:43;;;;;;;35.83;9.07;;;;;;;5.61;100.00;100290.44;5031893;28;20035;-80
2023/12/31 00:51:08;;;;;;;27.73;10.13;;;;;;;5.48;100.00;100280.97;5035004;28;20043;-79
2023/12/31 00:53:34;;;;;;;29.40;8.77;;;;;;;5.48;100.00;100280.97;5051059;28;20028;-79
2023/12/31 00:55:59;;;;;;;18.98;7.07;;;;;;;5.48;100.00;100282.81;5033904;28;20040;-78
2023/12/31 00:58:24;;;;;;;20.60;8.50;;;;;;;5.55;100.00;100283.03;5052138;28;20036;-79
2023/12/31 01:00:50;;;;;;;18.97;8.60;;;;;;;5.54;100.00;100268.16;5034485;28;20301;-78
2023/12/31 01:03:15;;;;;;;23.60;7.70;;;;;;;5.59;100.00;100271.19;5060280;28;20046;-79
2023/12/31 01:05:41;;;;;;;24.23;8.07;;;;;;;5.56;100.00;100250.31;5053774;28;20266;-79
2023/12/31 01:08:07;;;;;;;27.63;8.97;;;;;;;5.55;100.00;100267.16;5033089;28;20856;-76
2023/12/31 01:10:33;;;;;;;24.02;7.35;;;;;;;5.44;100.00;100262.88;5050354;28;20032;-77
2023/12/31 01:12:58;;;;;;;22.37;7.17;;;;;;;5.39;100.00;100263.28;5032851;28;20040;-76
2023/12/31 01:15:23;;;;;;;29.03;8.33;;;;;;;5.39;100.00;100268.59;5050256;28;20031;-77
2023/12/31 01:17:50;;;;;;;18.92;7.88;;;;;;;5.36;100.00;100275.97;5033377;28;20279;-77
2023/12/31 01:20:16;;;;;;;20.23;7.73;;;;;;;5.28;100.00;100258.97;5033270;28;20032;-77
2023/12/31 01:22:42;;;;;;;26.17;7.38;;;;;;;5.31;100.00;100268.44;5033079;28;20328;-78
2023/12/31 01:25:07;;;;;;;;;;;;;;;5.27;100.00;100259.13;5060301;28;20032;-77
2023/12/31 01:27:33;;;;;;;32.22;8.10;;;;;;;5.34;100.00;100262.88;5033269;28;20038;-76
2023/12/31 01:29:58;;;;;;;22.63;9.20;;;;;;;5.29;100.00;100262.44;5029870;28;20033;-76
2023/12/31 01:32:24;;;;;;;35.10;10.20;;;;;;;5.03;100.00;100248.94;5052165;28;20044;-77
2023/12/31 01:34:49;;;;;;;25.40;9.73;;;;;;;5.14;100.00;100255.91;5049705;28;20063;-77
2023/12/31 01:37:15;;;;;;;32.97;9.48;;;;;;;5.07;100.00;100256.47;5059010;28;20127;-77
2023/12/31 01:39:41;;;;;;;25.52;9.55;;;;;;;5.21;100.00;100257.03;5033342;28;20490;-77
2023/12/31 01:42:07;;;;;;;27.42;10.07;;;;;;;5.12;100.00;100249.94;5057872;28;20047;-77
2023/12/31 01:44:32;;;;;;;19.13;8.07;;;;;;;5.04;100.00;100251.47;5032849;28;20013;-76
2023/12/31 01:46:58;;;;;;;42.50;11.10;;;;;;;5.04;100.00;100246.16;5049297;28;20824;-77
2023/12/31 01:49:23;;;;;;;20.73;7.78;;;;;;;5.08;100.00;100244.91;5049630;28;20078;-77
2023/12/31 01:51:50;;;;;;;30.58;9.77;;;;;;;5.01;100.00;100240.31;5032871;28;20119;-76
2023/12/31 01:54:17;;;;;;;19.35;8.48;;;;;;;5.06;100.00;100241.56;5033081;28;20060;-77
2023/12/31 01:56:44;;;;;;;22.88;8.73;;;;;;;4.82;100.00;100226.13;5035264;28;20032;-77
2023/12/31 01:59:09;;;;;;;29.67;9.70;;;;;;;4.95;100.00;100251.47;5032815;28;20033;-76
2023/12/31 02:01:36;;;;;;;24.95;9.48;;;;;;;4.93;100.00;100245.47;5054483;28;20066;-77
2023/12/31 02:04:02;;;;;;;24.88;9.02;;;;;;;4.89;100.00;100244.88;5058024;28;20032;-77
2023/12/31 02:06:28;;;;;;;28.25;10.80;;;;;;;4.86;100.00;100231.94;5038161;28;20448;-76
2023/12/31 02:08:53;;;;;;;21.45;8.93;;;;;;;4.81;100.00;100234.19;5023517;28;20103;-77
2023/12/31 02:11:18;;;;;;;24.50;10.93;;;;;;;4.81;100.00;100228.88;5025106;28;20056;-76
2023/12/31 02:13:44;;;;;;;23.57;9.37;;;;;;;4.86;100.00;100239.88;5031780;28;20514;-76
2023/12/31 02:16:16;;;;;;;20.05;9.30;;;;;;;4.83;100.00;100225.13;5048853;28;20283;-78
2023/12/31 02:18:42;;;;;;;22.67;8.70;;;;;;;4.94;100.00;100221.53;5032480;28;20032;-77
2023/12/31 02:21:08;;;;;;;;;;;;;;;4.75;100.00;100197.69;5032787;28;20050;-77
2023/12/31 02:23:36;;;;;;;22.70;8.88;;;;;;;4.70;100.00;100205.22;5032068;28;19912;-77
2023/12/31 02:26:07;;;;;;;26.05;7.63;;;;;;;4.83;100.00;100216.38;5048810;28;20037;-76
2023/12/31 02:28:32;;;;;;;20.50;8.50;;;;;;;4.72;100.00;100201.44;5049023;28;20082;-78
2023/12/31 02:30:58;;;;;;;26.88;7.95;;;;;;;4.74;100.00;100193.41;5032434;28;20020;-76
2023/12/31 02:33:29;;;;;;;20.58;7.30;;;;;;;4.74;100.00;100198.69;5042761;28;20123;-78
2023/12/31 02:35:54;;;;;;;21.08;7.63;;;;;;;4.82;100.00;100219.97;5032327;28;20111;-76
2023/12/31 02:38:20;;;;;;;;;;;;;;;4.79;100.00;100214.97;5029812;28;20032;-77
2023/12/31 02:40:45;;;;;;;18.25;7.13;;;;;;;4.73;100.00;100212.84;5038411;28;19966;-76
2023/12/31 02:43:11;;;;;;;27.13;6.83;;;;;;;4.76;100.00;100209.97;5018581;28;20032;-77
2023/12/31 02:45:36;;;;;;;21.77;7.60;;;;;;;4.68;100.00;100207.16;5032168;28;20056;-76
2023/12/31 02:48:02;;;;;;;16.25;7.20;;;;;;;4.66;100.00;100209.94;5031580;28;20055;-77
2023/12/31 02:50:28;;;;;;;24.85;8.05;;;;;;;4.78;100.00;100208.03;5045186;28;20407;-77
2023/12/31 02:52:53;;;;;;;23.30;8.17;;;;;;;4.64;100.00;100199.50;5064476;28;20106;-77
2023/12/31 02:55:19;;;;;;;29.38;8.20;;;;;;;4.86;100.00;100200.22;5037945;28;20028;-78
2023/12/31 02:57:45;;;;;;;26.25;7.65;;;;;;;4.73;100.00;100192.56;5042549;28;20068;-76
2023/12/31 03:00:11;;;;;;;22.42;6.97;;;;;;;4.69;100.00;100183.22;5031666;28;20091;-77
2023/12/31 03:02:37;;;;;;;18.20;7.53;;;;;;;4.79;100.00;100197.28;5031538;28;20028;-77
2023/12/31 03:05:02;;;;;;;20.10;8.45;;;;;;;4.74;100.00;100191.56;5040016;28;20039;-76
2023/12/31 03:07:28;;;;;;;20.67;7.10;;;;;;;4.91;100.00;100197.97;5035502;28;20106;-76
2023/12/31 03:09:53;;;;;;;16.40;6.70;;;;;;;4.89;100.00;100178.75;5015336;28;20091;-76
2023/12/31 03:12:18;;;;;;;16.52;7.93;;;;;;;4.93;100.00;100171.41;5051697;28;20044;-76
2023/12/31 03:14:44;;;;;;;12.27;6.00;;;;;;;4.83;100.00;100163.47;5027871;28;20442;-77
2023/12/31 03:17:09;;;;;;;20.20;6.30;;;;;;;5.00;100.00;100178.63;5027590;28;20290;-76
2023/12/31 03:19:35;;;;;;;22.88;7.60;;;;;;;5.02;100.00;100157.31;5040959;28;20036;-76
2023/12/31 03:22:01;;;;;;;16.80;5.82;;;;;;;4.89;100.00;100140.91;5039146;28;20032;-77
2023/12/31 03:24:27;;;;;;;16.30;5.97;;;;;;;4.97;100.00;100144.53;5036005;28;20427;-77
2023/12/31 03:26:52;;;;;;;18.90;6.20;;;;;;;5.11;100.00;100145.91;5039409;28;20422;-77
2023/12/31 03:29:19;;;;;;;17.63;5.90;;;;;;;4.95;100.00;100124.47;5031459;28;20028;-75
2023/12/31 03:31:44;;;;;;;11.18;5.45;;;;;;;4.95;100.00;100125.31;5027933;28;20044;-76
2023/12/31 03:34:10;;;;;;;17.40;6.53;;;;;;;5.04;100.00;100142.97;5028644;28;20036;-76
2023/12/31 03:36:35;;;;;;;13.20;5.53;;;;;;;4.95;100.00;100120.00;5061437;28;20302;-77
2023/12/31 03:39:01;;;;;;;19.00;5.53;;;;;;;5.02;100.00;100125.56;5064863;28;20271;-77
2023/12/31 03:41:26;;;;;;;16.58;5.53;;;;;;;5.04;100.00;100121.81;5059426;28;20039;-77
2023/12/31 03:43:51;;;;;;;17.90;5.40;;;;;;;5.09;100.00;100113.44;5044107;28;20036;-76
2023/12/31 03:46:17;;;;;;;17.03;5.33;;;;;;;5.07;100.00;100108.28;5041107;28;20028;-77
2023/12/31 03:48:42;;;;;;;20.48;5.85;;;;;;;5.25;100.00;100110.22;5044130;28;20029;-77
2023/12/31 03:51:09;;;;;;;23.87;6.40;;;;;;;5.30;100.00;100100.03;5017938;28;20044;-78
2023/12/31 03:53:34;;;;;;;18.63;5.03;;;;;;;5.23;100.00;100091.00;5035704;28;20311;-76
2023/12/31 03:56:00;;;;;;;11.15;4.70;;;;;;;5.19;100.00;100085.13;5048287;28;20071;-77
2023/12/31 03:58:25;;;;;;;22.85;6.15;;;;;;;5.26;100.00;100090.69;5049774;22;20083;-76
2023/12/31 04:00:51;;;;;;;16.47;4.53;;;;;;;5.20;100.00;100076.25;5030602;28;20411;-75
2023/12/31 04:03:16;;;;;;;14.45;5.22;;;;;;;5.17;100.00;100065.91;5029526;28;20033;-76
2023/12/31 04:05:42;;;;;;;12.37;5.33;;;;;;;5.22;100.00;100068.13;5036961;28;20037;-75
2023/12/31 04:08:07;;;;;;;10.70;4.27;;;;;;;5.29;100.00;100059.50;5035976;28;20283;-75
2023/12/31 04:10:33;;;;;;;8.95;3.60;;;;;;;5.26;100.00;100048.34;5024816;28;20501;-74
2023/12/31 04:12:58;;;;;;;13.25;4.47;;;;;;;5.30;100.00;100052.38;5030115;28;20119;-74
2023/12/31 04:15:23;;;;;;;10.27;4.13;;;;;;;5.13;100.00;100027.53;5041882;28;20025;-75
2023/12/31 04:17:49;;;;;;;15.57;4.50;;;;;;;5.31;100.00;100035.50;5028305;28;20277;-74
2023/12/31 04:20:14;;;;;;;11.45;3.90;;;;;;;5.15;100.00;100022.06;5054785;28;20071;-74
2023/12/31 04:22:40;;;;;;;13.15;5.13;;;;;;;5.26;100.00;100027.19;5041397;28;20131;-75
2023/12/31 04:25:06;;;;;;;14.07;4.15;;;;;;;5.31;100.00;100016.16;5033683;28;20035;-75
2023/12/31 04:27:31;;;;;;;11.15;4.65;;;;;;;5.09;100.00;100004.97;5029013;28;20063;-74
2023/12/31 04:29:57;;;;;;;12.60;4.10;;;;;;;5.00;100.00;100001.38;5023429;28;20021;-74
2023/12/31 04:32:25;;;;;;;13.15;4.55;;;;;;;4.98;100.00;100019.19;5039808;28;20095;-74
2023/12/31 04:34:51;;;;;;;12.60;4.15;;;;;;;4.99;100.00;100023.53;5037844;28;20041;-74
2023/12/31 04:37:16;;;;;;;15.40;5.70;;;;;;;5.15;100.00;100016.75;5040723;28;20029;-75
2023/12/31 04:39:41;;;;;;;7.47;3.30;;;;;;;5.09;100.00;100004.97;5042501;28;20460;-74
2023/12/31 04:42:07;;;;;;;8.63;3.60;;;;;;;5.32;100.00;100029.25;5048272;28;20025;-75
2023/12/31 04:44:32;;;;;;;10.90;3.30;;;;;;;5.22;100.00;100002.81;5025534;28;20035;-75
2023/12/31 04:46:58;;;;;;;9.18;2.63;;;;;;;5.13;100.00;100000.19;5048145;28;20352;-75
2023/12/31 04:49:23;;;;;;;15.57;4.00;;;;;;;5.38;100.00;100009.28;5031906;28;20457;-75
2023/12/31 04:51:49;;;;;;;15.30;3.50;;;;;;;5.18;100.00;99988.22;5048220;28;20447;-75
2023/12/31 04:54:14;;;;;;;13.57;5.37;;;;;;;5.18;100.00;99992.69;5046991;28;20038;-74
2023/12/31 04:56:39;;;;;;;10.33;3.93;;;;;;;5.18;100.00;100000.63;5047609;28;20315;-75
2023/12/31 04:59:05;;;;;;;8.73;3.13;;;;;;;5.41;100.00;100009.03;5048218;28;20313;-74
2023/12/31 05:01:33;;;;;;;7.30;3.75;;;;;;;5.39;100.00;99998.56;5064873;28;20024;-74
2023/12/31 05:03:59;;;;;;;6.95;3.38;;;;;;;5.28;100.00;99982.88;5050391;28;20061;-75
2023/12/31 05:06:25;;;;;;;10.52;3.97;;;;;;;5.37;100.00;99976.69;5048979;28;20040;-75
2023/12/31 05:08:51;;;;;;;22.13;5.88;;;;;;;5.42;100.00;99982.38;5050327;28;20028;-75
2023/12/31 05:11:16;;;;;;;15.93;3.37;;;;;;;5.53;100.00;99986.66;5053998;28;20111;-75
2023/12/31 05:13:43;;;;;;;11.33;3.73;;;;;;;5.59;100.00;99977.25;5049486;28;20290;-75
2023/12/31 05:16:13;;;;;;;17.05;3.55;;;;;;;5.66;100.00;99978.31;5050561;28;20293;-74
2023/12/31 05:18:43;;;;;;;10.40;3.10;;;;;;;5.53;100.00;99962.81;5024054;28;20335;-75
2023/12/31 05:21:09;;;;;;;8.50;3.10;;;;;;;5.71;100.00;99976.06;5050827;28;20282;-75
2023/12/31 05:23:35;;;;;;;11.00;2.63;;;;;;;5.33;100.00;99948.84;5045499;28;20021;-75
2023/12/31 05:26:00;;;;;;;18.58;3.85;;;;;;;5.53;100.00;99980.53;5038898;28;20049;-74
2023/12/31 05:28:26;;;;;;;9.80;3.45;;;;;;;5.54;100.00;99979.53;5033225;28;20120;-75
2023/12/31 05:30:51;;;;;;;11.50;3.20;;;;;;;5.70;100.00;99985.81;5062159;28;20115;-75
2023/12/31 05:33:17;;;;;;;8.32;3.28;;;;;;;5.61;100.00;99985.91;5062996;28;20044;-74
2023/12/31 05:35:42;;;;;;;9.57;2.93;;;;;;;5.35;100.00;99978.66;5043561;28;20028;-75
2023/12/31 05:38:07;;;;;;;8.07;3.70;;;;;;;5.43;100.00;100012.31;5049253;28;20283;-74
2023/12/31 05:40:33;;;;;;;11.27;3.17;;;;;;;5.49;100.00;100023.16;5048806;28;20271;-75
2023/12/31 05:42:58;;;;;;;11.53;3.60;;;;;;;5.47;100.00;100016.34;5032130;28;20312;-74
2023/12/31 05:45:24;;;;;;;6.50;3.25;;;;;;;5.43;100.00;100037.00;5046918;28;20318;-74
2023/12/31 05:47:49;;;;;;;11.97;3.67;;;;;;;5.47;100.00;100041.00;5048911;28;20033;-75
2023/12/31 05:50:15;;;;;;;14.02;4.22;;;;;;;5.54;100.00;100040.44;5049115;28;20033;-75
2023/12/31 05:52:40;;;;;;;8.98;3.55;;;;;;;5.35;100.00;100023.66;5032280;28;20384;-74
2023/12/31 05:55:06;;;;;;;16.00;3.20;;;;;;;5.47;100.00;100038.34;5048703;28;20028;-74
2023/12/31 05:57:32;;;;;;;14.98;3.33;;;;;;;5.62;100.00;100049.31;5057391;28;20090;-74
2023/12/31 05:59:59;;;;;;;9.77;3.27;;;;;;;5.36;100.00;100027.13;5036916;28;20116;-75
2023/12/31 06:02:24;;;;;;;9.20;3.65;;;;;;;5.29;100.00;100026.88;5022084;28;20101;-75
2023/12/31 06:04:50;;;;;;;10.00;4.07;;;;;;;5.41;100.00;100031.03;5036609;28;20029;-75
2023/12/31 06:07:15;;;;;;;7.10;4.18;;;;;;;5.44;100.00;100032.53;5047224;28;20495;-75
2023/12/31 06:09:41;;;;;;;6.00;3.00;;;;;;;5.34;100.00;100024.66;5028915;28;20547;-74
2023/12/31 06:12:06;;;;;;;13.37;4.17;;;;;;;5.48;100.00;100025.97;5031967;28;20297;-76
2023/12/31 06:14:32;;;;;;;11.55;3.42;;;;;;;5.36;100.00;100019.19;5048359;28;20040;-75
2023/12/31 06:16:57;;;;;;;12.80;4.63;;;;;;;5.44;100.00;100022.78;5040234;28;20116;-75
2023/12/31 06:19:22;;;;;;;13.47;4.90;;;;;;;5.62;100.00;100028.13;5062466;28;20475;-76
2023/12/31 06:21:48;;;;;;;11.67;3.77;;;;;;;5.64;100.00;100009.41;5046500;28;20033;-75
2023/12/31 06:24:13;;;;;;;15.17;3.57;;;;;;;5.53;100.00;100001.72;5059759;28;20286;-75
2023/12/31 06:26:57;;;;;;;17.50;4.50;;;;;;;5.49;100.00;100001.97;5050966;28;20044;-75
2023/12/31 06:29:41;;;;;;;9.73;3.97;;;;;;;5.71;100.00;100002.53;5053633;28;20051;-75
2023/12/31 06:32:25;;;;;;;9.25;3.58;;;;;;;5.56;100.00;99980.22;5046165;28;20056;-75
2023/12/31 06:35:09;;;;;;;9.25;3.65;;;;;;;5.65;100.00;99981.97;5046174;28;20098;-75
2023/12/31 06:37:53;;;;;;;9.52;3.35;;;;;;;5.58;100.00;99962.38;5046399;28;20060;-75
2023/12/31 06:40:37;;;;;;;9.85;3.40;;;;;;;5.53;100.00;99951.41;5039089;28;20048;-75
2023/12/31 06:43:21;;;;;;;14.75;3.75;;;;;;;5.60;100.00;99960.41;5048851;28;20063;-75
2023/12/31 06:46:06;;;;;;;7.03;3.33;;;;;;;5.55;100.00;99952.91;5046295;28;20094;-75
2023/12/31 06:48:49;;;;;;;21.50;4.68;;;;;;;5.61;100.00;99948.81;5047349;28;20785;-75
2023/12/31 06:51:33;;;;;;;7.40;3.05;;;;;;;5.31;100.00;99934.94;5050830;28;20090;-75
2023/12/31 06:54:17;;;;;;;9.82;3.25;;;;;;;5.44;100.00;99951.28;5047233;28;20059;-75
2023/12/31 06:56:42;;;;;;;12.80;2.90;;;;;;;5.47;100.00;99939.56;5021093;28;20479;-74
2023/12/31 06:59:08;;;;;;;9.57;3.67;;;;;;;5.37;100.00;99931.69;5035596;28;20033;-75
2023/12/31 07:01:33;;;;;;;11.98;4.03;;;;;;;5.07;100.00;99914.31;5043476;28;20605;-75
2023/12/31 07:03:58;;;;;;;7.37;3.47;;;;;;;5.18;100.00;99923.88;5044637;28;20117;-75
2023/12/31 07:06:24;;;;;;;10.67;3.50;;;;;;;5.10;100.00;99916.66;5044834;28;20329;-76
2023/12/31 07:08:49;;;;;;;10.50;4.07;;;;;;;5.40;100.00;99931.38;5030365;28;20458;-76
2023/12/31 07:11:16;;;;;;;7.00;3.17;;;;;;;5.22;100.00;99898.75;5028272;28;20037;-75
2023/12/31 07:13:42;;;;;;;6.63;3.10;;;;;;;5.20;100.00;99898.09;5047869;28;20039;-75
2023/12/31 07:16:07;;;;;;;8.63;3.25;;;;;;;5.14;100.00;99885.44;5028234;28;20021;-75
2023/12/31 07:18:33;;;;;;;11.70;4.17;;;;;;;5.12;100.00;99882.13;5039525;28;20048;-74
2023/12/31 07:20:58;;;;;;;4.63;2.70;;;;;;;5.21;100.00;99882.06;5028447;28;20068;-75
2023/12/31 07:23:24;;;;;;;12.97;3.40;;;;;;;5.17;100.00;99858.69;5046597;28;20132;-75
2023/12/31 07:25:49;;;;;;;13.00;3.97;;;;;;;5.28;100.00;99863.78;5031651;28;20267;-76
2023/12/31 07:28:14;;;;;;;8.73;4.10;;;;;;;5.16;100.00;99851.75;5044282;28;20305;-74
2023/12/31 07:30:40;;;;;;;9.32;4.47;;;;;;;5.17;100.00;99856.88;5048118;28;20083;-74
2023/12/31 07:33:06;;;;;;;8.85;3.85;;;;;;;4.99;100.00;99861.31;5027392;28;20045;-75
2023/12/31 07:35:34;;;;;;;12.77;3.72;;;;;;;5.08;100.00;99882.44;5026434;28;20044;-75
2023/12/31 07:38:00;;;;;;;10.27;3.70;;;;;;;5.16;100.00;99878.22;5043360;28;20033;-75
2023/12/31 07:40:26;;;;;;;11.43;3.63;;;;;;;5.15;100.00;99871.22;5050524;28;20047;-74
2023/12/31 07:42:51;;;;;;;19.87;4.40;;;;;;;5.10;100.00;99866.38;5031299;28;20044;-74
2023/12/31 07:45:17;;;;;;;10.33;3.63;;;;;;;5.19;100.00;99862.84;5050366;28;20745;-74
2023/12/31 07:47:42;;;;;;;8.55;3.35;;;;;;;5.26;100.00;99850.69;5031607;28;20765;-74
2023/12/31 07:50:08;;;;;;;7.97;3.57;;;;;;;4.99;100.00;99824.28;5047878;28;20028;-75
2023/12/31 07:52:34;;;;;;;11.88;5.53;;;;;;;5.15;100.00;99829.75;5047748;28;20104;-75
2023/12/31 07:54:59;;;;;;;8.80;2.97;;;;;;;5.26;100.00;99826.84;5031017;28;20487;-75
2023/12/31 07:57:24;;;;;;;8.27;4.47;;;;;;;5.05;100.00;99808.63;5049735;28;20502;-74
2023/12/31 07:59:50;;;;;;;6.67;3.27;;;;;;;4.97;100.00;99797.97;5044196;28;20548;-75
2023/12/31 08:02:15;;;;;;;7.37;3.70;;;;;;;5.10;100.00;99802.06;5042126;28;20277;-75
2023/12/31 08:04:41;;;;;;;11.37;3.37;;;;;;;5.10;100.00;99794.94;5051029;28;20036;-75
2023/12/31 08:07:06;;;;;;;6.97;3.22;;;;;;;5.32;100.00;99809.56;5050939;28;20070;-75
2023/12/31 08:09:31;;;;;;;7.18;2.83;;;;;;;5.19;100.00;99803.81;5048083;28;20064;-74
2023/12/31 08:11:57;;;;;;;16.17;3.67;;;;;;;5.35;100.00;99819.84;5030918;28;20039;-75
2023/12/31 08:14:22;;;;;;;7.13;2.67;;;;;;;5.04;100.00;99780.50;5048466;28;20298;-74
2023/12/31 08:16:48;;;;;;;7.90;3.53;;;;;;;5.07;100.00;99790.78;5047405;28;20350;-75
2023/12/31 08:19:14;;;;;;;7.22;2.78;;;;;;;5.02;100.00;99794.88;5030916;28;20051;-75
2023/12/31 08:21:40;;;;;;;5.80;3.22;;;;;;;4.91;100.00;99782.69;5050543;28;20049;-75
2023/12/31 08:24:05;;;;;;;10.25;3.38;;;;;;;4.99;100.00;99803.94;5053000;28;20029;-75
2023/12/31 08:26:31;;;;;;;8.07;2.92;;;;;;;5.20;100.00;99811.59;5047718;28;20044;-74
2023/12/31 08:28:56;;;;;;;7.27;2.80;;;;;;;5.06;100.00;99781.19;5047858;28;20029;-75
2023/12/31 08:31:22;;;;;;;9.37;3.20;;;;;;;5.19;100.00;99795.88;5047421;28;20322;-74
2023/12/31 08:33:47;;;;;;;9.67;3.73;;;;;;;5.19;100.00;99790.56;5047329;28;20317;-75
2023/12/31 08:36:12;;;;;;;7.73;3.27;;;;;;;5.35;100.00;99796.00;5047153;28;20305;-76
2023/12/31 08:38:38;;;;;;;7.82;3.03;;;;;;;5.31;100.00;99778.75;5050715;28;20151;-74
2023/12/31 08:41:03;;;;;;;7.27;2.93;;;;;;;5.45;100.00;99772.94;5050289;28;20041;-75
2023/12/31 08:43:28;;;;;;;9.93;2.70;;;;;;;5.47;100.00;99759.53;5047385;28;20769;-75
2023/12/31 08:45:54;;;;;;;10.73;2.57;;;;;;;5.43;100.00;99734.34;5050536;28;20278;-74
2023/12/31 08:48:20;;;;;;;13.90;2.77;;;;;;;5.47;100.00;99714.53;5041425;28;20499;-75
2023/12/31 08:50:45;;;;;;;9.27;2.95;;;;;;;5.46;100.00;99711.06;5039147;28;20035;-74
2023/12/31 08:53:11;;;;;;;9.85;3.22;;;;;;;5.47;100.00;99701.31;5046838;28;20036;-75
2023/12/31 08:55:36;;;;;;;6.80;2.25;;;;;;;5.59;100.00;99704.53;5025163;28;20040;-75
2023/12/31 08:58:02;;;;;;;6.68;2.42;;;;;;;5.43;100.00;99695.50;5050087;28;20028;-75
2023/12/31 09:00:28;;;;;;;6.82;3.10;;;;;;;5.57;100.00;99693.25;5047942;28;20029;-74
2023/12/31 09:02:54;;;;;;;15.18;4.25;;;;;;;5.55;100.00;99685.50;5027101;28;20828;-75
2023/12/31 09:05:19;;;;;;;7.55;2.88;;;;;;;5.78;100.00;99687.59;5048958;28;20037;-74
2023/12/31 09:07:45;;;;;;;5.10;2.30;;;;;;;5.71;100.00;99674.13;5029120;28;20037;-75
2023/12/31 09:10:10;;;;;;;8.98;3.15;;;;;;;5.76;100.00;99663.94;5026333;28;20566;-75
2023/12/31 09:12:36;;;;;;;7.53;2.20;;;;;;;5.69;100.00;99641.72;5029892;28;20025;-75
2023/12/31 09:15:01;;;;;;;7.40;2.63;;;;;;;5.77;100.00;99644.38;5026698;28;20035;-75
2023/12/31 09:17:27;;;;;;;9.73;2.83;;;;;;;5.67;100.00;99628.63;5060431;28;20033;-74
2023/12/31 09:19:55;;;;;;;4.20;2.27;;;;;;;5.86;100.00;99647.91;5028080;28;20271;-74
2023/12/31 09:22:21;;;;;;;6.13;2.38;;;;;;;5.76;100.00;99621.56;5055716;28;20447;-75
2023/12/31 09:24:48;;;;;;;11.20;4.07;;;;;;;5.71;100.00;99614.09;5066731;28;20036;-76
2023/12/31 09:27:14;;;;;;;5.80;2.70;;;;;;;5.88;100.00;99622.09;5046200;28;20032;-75
2023/12/31 09:29:39;;;;;;;5.55;2.00;;;;;;;5.80;100.00;99600.84;5045987;28;20560;-74
2023/12/31 09:32:04;;;;;;;4.03;2.43;;;;;;;6.05;100.00;99609.75;5045884;28;20115;-75
2023/12/31 09:34:30;;;;;;;7.90;2.20;;;;;;;6.18;100.00;99619.88;5065729;28;20110;-75
2023/12/31 09:36:55;;;;;;;10.27;2.80;;;;;;;6.06;100.00;99582.25;5049368;28;20046;-74
2023/12/31 09:39:21;;;;;;;3.33;1.80;;;;;;;6.04;100.00;99577.13;5031511;28;20279;-75
2023/12/31 09:41:52;;;;;;;6.97;2.77;;;;;;;6.22;100.00;99608.81;5055562;28;20029;-75
2023/12/31 09:44:19;;;;;;;7.82;2.00;;;;;;;6.19;100.00;99587.09;5055230;28;20039;-75
2023/12/31 09:47:04;;;;;;;11.05;2.42;;;;;;;6.27;100.00;99577.34;5049243;28;20040;-75
2023/12/31 09:49:32;;;;;;;4.97;2.45;;;;;;;6.40;100.00;99560.13;5030561;28;20043;-75
2023/12/31 09:52:03;;;;;;;4.55;2.05;;;;;;;6.32;100.00;99542.38;5031364;28;20075;-74
2023/12/31 09:54:30;;;;;;;6.22;2.63;;;;;;;6.36;100.00;99540.25;5031365;28;21079;-74
2023/12/31 09:56:57;;;;;;;3.92;2.20;;;;;;;6.48;100.00;99536.25;5032123;28;20040;-74
2023/12/31 09:59:24;;;;;;;3.83;1.80;;;;;;;6.43;100.00;99512.06;5065409;23;20051;-79
2023/12/31 10:01:52;;;;;;;3.78;1.80;;;;;;;6.67;100.00;99535.09;5013965;28;20041;-81
2023/12/31 10:04:18;;;;;;;4.05;1.70;;;;;;;6.63;100.00;99497.50;5020462;28;20041;-79
2023/12/31 10:06:43;;;;;;;;;;;;;;;6.38;100.00;99462.19;5032535;28;20543;-82
2023/12/31 10:09:11;;;;;;;6.82;1.88;;;;;;;6.58;100.00;99483.06;5031160;28;19916;-79
2023/12/31 10:11:38;;;;;;;4.70;1.67;;;;;;;6.57;100.00;99468.97;5036621;28;20021;-78
2023/12/31 10:14:03;;;;;;;7.20;3.17;;;;;;;6.57;100.00;99476.94;5047911;28;20777;-79
2023/12/31 10:16:37;;;;;;;3.40;1.43;;;;;;;6.61;100.00;99475.59;5025881;28;20033;-81
2023/12/31 10:19:03;;;;;;;6.88;2.22;;;;;;;6.51;100.00;99420.09;5043706;28;20052;-80
2023/12/31 10:21:29;;;;;;;;;;;;;;;6.84;100.00;99456.34;5045217;28;20090;-79
2023/12/31 10:23:54;;;;;;;7.93;2.55;;;;;;;6.81;100.00;99408.91;5029629;28;20019;-81
2023/12/31 10:26:20;;;;;;;4.90;2.00;;;;;;;6.78;100.00;99388.03;5044398;28;20029;-80
2023/12/31 10:28:45;;;;;;;5.80;1.90;;;;;;;6.92;100.00;99403.25;5036307;28;20320;-78
2023/12/31 10:31:10;;;;;;;5.43;2.00;;;;;;;6.75;100.00;99355.56;5031184;28;20064;-80
2023/12/31 10:33:37;;;;;;;4.37;1.57;;;;;;;6.85;100.00;99357.19;5019510;28;20044;-78
2023/12/31 10:36:04;;;;;;;;;;;;;;;6.83;100.00;99345.91;5067248;28;20580;-78
2023/12/31 10:38:45;;;;;;;3.05;2.00;;;;;;;6.90;100.00;99339.72;5064052;28;19960;-78
2023/12/31 10:41:17;;;;;;;4.90;2.20;;;;;;;7.08;100.00;99363.38;5033853;28;20032;-77
2023/12/31 10:43:47;;;;;;;3.88;2.15;;;;;;;6.94;100.00;99337.56;5040834;28;20041;-78
2023/12/31 10:46:14;;;;;;;5.45;2.55;;;;;;;6.86;100.00;99325.19;5024744;28;20506;-78
2023/12/31 10:48:47;;;;;;;5.45;2.17;;;;;;;6.86;100.00;99326.97;5037731;28;20079;-77
2023/12/31 10:51:20;;;;;;;4.95;2.30;;;;;;;6.82;100.00;99321.22;5029545;28;20114;-76
2023/12/31 10:53:49;;;;;;;7.68;2.55;;;;;;;6.74;100.00;99314.13;5038053;28;20036;-76
2023/12/31 10:56:15;;;;;;;3.92;1.92;;;;;;;6.84;100.00;99307.78;5037382;28;20102;-77
2023/12/31 10:58:40;;;;;;;;;;;;;;;6.91;100.00;99301.59;5013106;28;20039;-76
2023/12/31 11:01:07;;;;;;;5.00;2.13;;;;;;;6.85;100.00;99289.00;5021370;28;20283;-77
2023/12/31 11:03:33;;;;;;;7.78;2.75;;;;;;;6.92;100.00;99284.66;5030914;28;20032;-78
2023/12/31 11:06:00;;;;;;;4.63;1.70;;;;;;;6.99;100.00;99268.88;5032548;28;20080;-80
2023/12/31 11:08:28;;;;;;;6.78;2.28;;;;;;;6.82;100.00;99240.81;5041420;28;20372;-77
2023/12/31 11:10:53;;;;;;;6.10;2.88;;;;;;;6.71;100.00;99232.22;5018964;28;20036;-79
2023/12/31 11:13:20;;;;;;;4.27;1.90;;;;;;;6.69;100.00;99226.25;5050405;28;20079;-81
2023/12/31 11:15:48;;;;;;;9.77;2.33;;;;;;;6.84;100.00;99238.81;5067495;28;20120;-76
2023/12/31 11:18:39;;;;;;;6.47;1.92;;;;;;;6.76;100.00;99206.00;5049549;28;20036;-77
2023/12/31 11:21:18;;;;;;;11.98;3.38;;;;;;;6.99;100.00;99237.03;5018753;28;20060;-78
2023/12/31 11:23:59;;;;;;;4.53;1.73;;;;;;;6.75;100.00;99196.41;5033468;28;20041;-79